• Join FlightAware (Why Join?)
  • Login
  • US Flag 
10:37PM EDT


 

Airport Tracker/Info


-or-


 

Live Flight TrackerFlight Track Log ✈ JBU1329 ✈ 17-Apr-2013 ✈ KBOS - KBWI

Flight Track Log - Related Links

Times and Time Zones

All times are in EDT time to prevent confusion due to time zone crossing. See the JBU1329 flight status page for this flight to view local times or setup timezone preferences in your user account.

Time Position Orientation Groundspeed Altitude Reporting Facility
EDT Latitude Longitude Course Direction KTS MPH feet Rate Location/Type
09:43AM 42.3833 -71.0167 240° Southwest 134 154 900  Level KA90
09:44AM 42.4000 -71.0833 289° West 192 221 3,000 2,520 Climbing KA90
09:46AM 42.3020 -70.7171 172° South  Level FlightAware Approximate
09:47AM 42.2388 -70.8084 228° Southwest  Level FlightAware Approximate
09:47AM 42.3381 -71.2547 244° Southwest 244 281 10,200  Level Boston Center
09:48AM 42.1907 -70.9162 240° Southwest  Level FlightAware Approximate
09:48AM 42.2825 -71.3514 232° Southwest 283 326 12,500  Level Boston Center
09:49AM 42.2314 -71.4475 234° Southwest 320 368 15,000 2,640 Climbing Boston Center
09:50AM 42.1761 -71.5492 234° Southwest 338 389 17,900 2,580 Climbing Boston Center
09:51AM 42.1225 -71.6592 237° Southwest 345 397 20,100 2,160 Climbing Boston Center
09:52AM 42.0753 -71.7717 241° Southwest 350 403 22,200 1,860 Climbing Boston Center
09:53AM 42.0239 -71.8922 240° Southwest 361 415 23,900 1,620 Climbing Boston Center
09:54AM 41.9703 -72.0128 239° Southwest 372 428 25,600 1,500 Climbing Boston Center
09:55AM 41.9228 -72.1247 240° Southwest 384 442 26,900 1,440 Climbing Boston Center
09:56AM 41.8689 -72.2506 240° Southwest 384 442 28,500 1,740 Climbing Boston Center
09:57AM 41.8128 -72.3761 239° Southwest 390 449 30,500 1,620 Climbing Boston Center
09:58AM 41.7606 -72.4986 240° Southwest 390 449 31,900 720 Climbing Boston Center
09:59AM 41.7042 -72.6264 239° Southwest 390 449 32,000  Climbing Boston Center
10:00AM 41.6475 -72.7542 239° Southwest 401 461 32,000  Level Boston Center
10:01AM 41.5931 -72.8842 241° Southwest 401 461 32,000  Level Boston Center
10:02AM 41.5383 -73.0086 240° Southwest 401 461 32,000  Level Boston Center
10:03AM 41.4769 -73.1467 239° Southwest 395 455 32,000  Level Boston Center
10:04AM 41.4283 -73.2594 240° Southwest 400 460 32,000  Level Boston Center
10:06AM 41.2911 -73.5656 239° Southwest 399 459 32,000  Level New York Center
10:07AM 41.2236 -73.6842 233° Southwest 399 459 32,000  Level New York Center
10:08AM 41.1561 -73.7997 232° Southwest 404 465 32,000  Level New York Center
10:09AM 41.0864 -73.9178 232° Southwest 409 471 32,000  Level New York Center
10:10AM 41.0167 -74.0328 231° Southwest 409 471 32,000 -300 Level New York Center
10:11AM 40.9467 -74.1500 232° Southwest 409 471 31,500 -1,140 Descending New York Center
10:12AM 40.8706 -74.2617 228° Southwest 409 471 29,800 -1,680 Descending New York Center
10:13AM 40.8022 -74.3786 232° Southwest 409 471 28,200 -900 Descending New York Center
10:14AM 40.7322 -74.4928 231° Southwest 409 471 28,000 -420 Descending New York Center
10:15AM 40.6661 -74.6067 233° Southwest 409 471 27,400 -900 Descending New York Center
10:16AM 40.5956 -74.7203 231° Southwest 409 471 26,300 -1,500 Descending New York Center
10:17AM 40.5600 -74.8494 250° West 385 443 24,500 -1,860 Descending New York Center
10:18AM 40.5303 -74.9814 254° West 380 437 22,600 -2,100 Descending New York Center
10:19AM 40.5050 -75.1000 254° West 358 412 20,400 -2,160 Descending New York Center
10:20AM 40.4514 -75.2031 236° Southwest 346 398 18,400 -1,200 Descending New York Center
10:21AM 40.3919 -75.2808 225° Southwest 341 392 18,000 -240 Descending New York Center
10:22AM 40.3122 -75.3492 213° Southwest 346 398 18,000  Level New York Center
10:23AM 40.2239 -75.4222 212° Southwest 351 404 18,000  Level New York Center
10:24AM 40.1378 -75.4925 212° Southwest 359 413 18,000  Level New York Center
10:25AM 40.0581 -75.5575 212° Southwest 372 428 18,000  Level New York Center
10:26AM 39.9631 -75.6350 212° Southwest 378 435 18,000 -180 Level New York Center
10:27AM 39.8953 -75.7169 223° Southwest 372 428 17,700 -1,380 Descending New York Center
10:28AM 39.8339 -75.8317 235° Southwest 367 422 15,300 -2,100 Descending New York Center
10:30AM 39.7500 -76.0000 237° Southwest 338 389 12,200 -1,260 Descending Potomac TRACON
10:31AM 39.7000 -76.1000 237° Southwest 295 339 12,000 -540 Descending Potomac TRACON
10:32AM 39.6500 -76.1667 226° Southwest 286 329 11,200 -1,320 Descending Potomac TRACON
10:33AM 39.5833 -76.2333 218° Southwest 290 334 9,500 -1,740 Descending Potomac TRACON
10:34AM 39.5167 -76.3000 218° Southwest 288 331 7,700 -1,620 Descending Potomac TRACON
10:35AM 39.4667 -76.3667 226° Southwest 285 328 6,300 -1,380 Descending Potomac TRACON
10:36AM 39.4000 -76.4167 210° Southwest 267 307 5,100 -780 Descending Potomac TRACON
10:37AM 39.3333 -76.4167 180° South 284 327 4,800 -600 Descending Potomac TRACON
10:38AM 39.2667 -76.4167 180° South 278 320 4,000 -780 Descending Potomac TRACON
10:39AM 39.1833 -76.4500 197° South 267 307 3,300 -720 Descending Potomac TRACON
10:40AM 39.1167 -76.4833 201° Southwest 262 302 2,600 -720 Descending Potomac TRACON